PWSweather.com
Personal Weather Stations
Station Observations

ChardChardGB

Lat: 50.877408, Lon: -2.94964741

Elevation: 341

Station Type: WS3083

http://www.merriott-astro.co.uk/weather/index.htm

High Low Average
Temperature 67.6°F19.8°C 56.7°F13.7°C 61.2°F16.2°C
Dew Point 62.3°F16.8°C 50.9°F10.5°C 55.1°F12.8°C
Winds 9.0 mph 14.5 kmh 3.3 mph 5.3 kmh 6.0 mph SW9.7 kmh SW
Wind Gusts 16.8 mph27.0 kmh 4.5 mph7.2 kmh 10.0 mph16.1 kmh
Humidity 100% 59% 81%
Pressure 29.05 in983.7 mb 28.92 in979.3 mb -
Precipitation 0.09 in2.3 mm - -
Hour Temp Dew Point Humidity Winds Wind Gusts Pressure Precip Precip Rate Daily Precip Total
12:00 AM 61.0°F16.1°C 59.8°F15.4°C 96% 7.9 mph SSW12.7 kmh SSW 12.1 mph19.5 kmh 28.97 in981.0 mb 0.00 in0.0 mm 0.00 in0.0 mm 0.00 in0.0 mm
12:10 AM 61.0°F16.1°C 61.0°F16.1°C 100% 7.9 mph SSW12.7 kmh SSW 14.5 mph23.3 kmh 28.97 in981.0 mb 0.00 in0.0 mm 0.00 in0.0 mm 0.00 in0.0 mm
12:20 AM 61.0°F16.1°C 60.7°F15.9°C 99% 7.0 mph S11.3 kmh S 9.2 mph14.8 kmh 28.96 in980.7 mb 0.00 in0.0 mm 0.00 in0.0 mm 0.00 in0.0 mm
12:30 AM 61.0°F16.1°C 60.7°F15.9°C 99% 7.8 mph SSW12.6 kmh SSW 12.1 mph19.5 kmh 28.96 in980.7 mb 0.01 in0.3 mm 0.06 in1.5 mm 0.01 in0.3 mm
12:40 AM 61.2°F16.2°C 60.9°F16.1°C 99% 8.1 mph S13.0 kmh S 10.7 mph17.2 kmh 28.97 in981.0 mb 0.01 in0.3 mm 0.00 in0.0 mm 0.01 in0.3 mm
12:50 AM 61.2°F16.2°C 60.9°F16.1°C 99% 6.6 mph SW10.6 kmh SW 8.3 mph13.4 kmh 28.96 in980.7 mb 0.01 in0.3 mm 0.00 in0.0 mm 0.01 in0.3 mm
01:00 AM 61.3°F16.3°C 61.1°F16.2°C 99% 5.8 mph S9.3 kmh S 8.3 mph13.4 kmh 28.96 in980.7 mb 0.01 in0.3 mm 0.00 in0.0 mm 0.01 in0.3 mm
01:10 AM 61.5°F16.4°C 61.3°F16.3°C 99% 5.5 mph SW8.9 kmh SW 8.3 mph13.4 kmh 28.96 in980.7 mb 0.01 in0.3 mm 0.00 in0.0 mm 0.01 in0.3 mm
01:20 AM 61.5°F16.4°C 61.3°F16.3°C 99% 8.0 mph S12.9 kmh S 12.1 mph19.5 kmh 28.95 in980.4 mb 0.01 in0.3 mm 0.00 in0.0 mm 0.01 in0.3 mm
01:30 AM 61.7°F16.5°C 61.4°F16.3°C 99% 6.4 mph S10.3 kmh S 9.2 mph14.8 kmh 28.95 in980.4 mb 0.00 in0.0 mm 0.00 in0.0 mm 0.01 in0.3 mm
01:40 AM 61.9°F16.6°C 61.6°F16.4°C 99% 7.1 mph SW11.4 kmh SW 10.7 mph17.2 kmh 28.94 in980.0 mb 0.00 in0.0 mm 0.00 in0.0 mm 0.01 in0.3 mm
01:50 AM 61.9°F16.6°C 61.6°F16.4°C 99% 7.2 mph SSW11.6 kmh SSW 9.2 mph14.8 kmh 28.95 in980.4 mb 0.00 in0.0 mm 0.00 in0.0 mm 0.01 in0.3 mm
02:00 AM 62.1°F16.7°C 61.8°F16.6°C 99% 7.1 mph SSW11.4 kmh SSW 9.8 mph15.8 kmh 28.94 in980.0 mb 0.00 in0.0 mm 0.00 in0.0 mm 0.01 in0.3 mm
02:10 AM 62.1°F16.7°C 61.8°F16.6°C 99% 5.5 mph S8.9 kmh S 8.3 mph13.4 kmh 28.95 in980.4 mb 0.00 in0.0 mm 0.00 in0.0 mm 0.01 in0.3 mm
02:20 AM 62.2°F16.8°C 62.0°F16.7°C 99% 7.8 mph S12.6 kmh S 9.8 mph15.8 kmh 28.95 in980.4 mb 0.00 in0.0 mm 0.00 in0.0 mm 0.01 in0.3 mm
02:30 AM 62.1°F16.7°C 61.8°F16.6°C 99% 7.8 mph S12.6 kmh S 11.4 mph18.3 kmh 28.94 in980.0 mb 0.00 in0.0 mm 0.00 in0.0 mm 0.01 in0.3 mm
02:40 AM 62.2°F16.8°C 62.0°F16.7°C 99% 7.3 mph SW11.7 kmh SW 10.7 mph17.2 kmh 28.95 in980.4 mb 0.00 in0.0 mm 0.00 in0.0 mm 0.01 in0.3 mm
02:50 AM 62.2°F16.8°C 62.0°F16.7°C 99% 8.0 mph SW12.9 kmh SW 10.7 mph17.2 kmh 28.95 in980.4 mb 0.00 in0.0 mm 0.00 in0.0 mm 0.01 in0.3 mm
03:00 AM 62.2°F16.8°C 62.0°F16.7°C 99% 6.4 mph SSW10.3 kmh SSW 11.4 mph18.3 kmh 28.93 in979.7 mb 0.00 in0.0 mm 0.00 in0.0 mm 0.01 in0.3 mm
03:10 AM 62.4°F16.9°C 62.2°F16.8°C 99% 7.0 mph SSW11.3 kmh SSW 12.1 mph19.5 kmh 28.93 in979.7 mb 0.00 in0.0 mm 0.00 in0.0 mm 0.01 in0.3 mm
03:20 AM 62.2°F16.8°C 62.0°F16.7°C 99% 7.8 mph S12.6 kmh S 10.7 mph17.2 kmh 28.93 in979.7 mb 0.00 in0.0 mm 0.00 in0.0 mm 0.01 in0.3 mm
03:30 AM 62.2°F16.8°C 62.0°F16.7°C 99% 7.3 mph SSW11.7 kmh SSW 9.8 mph15.8 kmh 28.94 in980.0 mb 0.00 in0.0 mm 0.00 in0.0 mm 0.01 in0.3 mm
03:40 AM 62.2°F16.8°C 62.0°F16.7°C 99% 5.9 mph SSW9.5 kmh SSW 8.3 mph13.4 kmh 28.93 in979.7 mb 0.02 in0.5 mm 0.12 in3.0 mm 0.04 in1.0 mm
03:50 AM 62.1°F16.7°C 61.8°F16.6°C 99% 6.0 mph SW9.7 kmh SW 9.8 mph15.8 kmh 28.93 in979.7 mb 0.05 in1.3 mm 0.18 in4.6 mm 0.06 in1.5 mm
04:00 AM 61.9°F16.6°C 61.6°F16.4°C 99% 5.7 mph S9.2 kmh S 9.8 mph15.8 kmh 28.93 in979.7 mb 0.06 in1.5 mm 0.01 in0.3 mm 0.07 in1.8 mm
04:10 AM 61.9°F16.6°C 61.6°F16.4°C 99% 8.0 mph S12.9 kmh S 11.4 mph18.3 kmh 28.92 in979.3 mb 0.08 in2.0 mm 0.12 in3.0 mm 0.09 in2.3 mm
04:20 AM 61.9°F16.6°C 61.6°F16.4°C 99% 6.9 mph SW11.1 kmh SW 13.6 mph21.9 kmh 28.92 in979.3 mb 0.08 in2.0 mm 0.00 in0.0 mm 0.09 in2.3 mm
04:30 AM 62.1°F16.7°C 61.8°F16.6°C 99% 5.9 mph SSW9.5 kmh SSW 9.2 mph14.8 kmh 28.93 in979.7 mb 0.08 in2.0 mm 0.00 in0.0 mm 0.09 in2.3 mm
04:40 AM 62.1°F16.7°C 61.8°F16.6°C 99% 6.1 mph SSW9.8 kmh SSW 10.7 mph17.2 kmh 28.93 in979.7 mb 0.06 in1.5 mm 0.00 in0.0 mm 0.09 in2.3 mm
04:50 AM 62.2°F16.8°C 62.0°F16.7°C 99% 6.9 mph SW11.1 kmh SW 9.8 mph15.8 kmh 28.93 in979.7 mb 0.04 in1.0 mm 0.00 in0.0 mm 0.09 in2.3 mm
05:00 AM 62.2°F16.8°C 62.3°F16.8°C 100% 6.4 mph SW10.3 kmh SW 9.8 mph15.8 kmh 28.94 in980.0 mb 0.02 in0.5 mm 0.00 in0.0 mm 0.09 in2.3 mm
05:10 AM 62.2°F16.8°C 60.8°F16.0°C 95% 5.8 mph WSW9.3 kmh WSW 9.2 mph14.8 kmh 28.94 in980.0 mb 0.00 in0.0 mm 0.00 in0.0 mm 0.09 in2.3 mm
05:20 AM 62.1°F16.7°C 59.7°F15.4°C 92% 8.1 mph SW13.0 kmh SW 12.1 mph19.5 kmh 28.94 in980.0 mb 0.00 in0.0 mm 0.00 in0.0 mm 0.09 in2.3 mm
05:30 AM 61.9°F16.6°C 58.9°F14.9°C 90% 6.2 mph SSE10.0 kmh SSE 12.1 mph19.5 kmh 28.94 in980.0 mb 0.00 in0.0 mm 0.00 in0.0 mm 0.09 in2.3 mm
05:40 AM 61.7°F16.5°C 58.8°F14.9°C 90% 5.2 mph NW8.4 kmh NW 9.2 mph14.8 kmh 28.95 in980.4 mb 0.00 in0.0 mm 0.00 in0.0 mm 0.09 in2.3 mm
05:50 AM 61.5°F16.4°C 58.3°F14.6°C 89% 6.2 mph SW10.0 kmh SW 7.6 mph12.2 kmh 28.95 in980.4 mb 0.00 in0.0 mm 0.00 in0.0 mm 0.09 in2.3 mm
06:00 AM 61.3°F16.3°C 57.8°F14.3°C 88% 4.7 mph SSW7.6 kmh SSW 6.9 mph11.1 kmh 28.95 in980.4 mb 0.00 in0.0 mm 0.00 in0.0 mm 0.09 in2.3 mm
06:10 AM 61.2°F16.2°C 56.6°F13.7°C 85% 5.8 mph SW9.3 kmh SW 9.2 mph14.8 kmh 28.96 in980.7 mb 0.00 in0.0 mm 0.00 in0.0 mm 0.09 in2.3 mm
06:20 AM 61.0°F16.1°C 55.8°F13.2°C 83% 5.0 mph W8.0 kmh W 6.9 mph11.1 kmh 28.95 in980.4 mb 0.00 in0.0 mm 0.00 in0.0 mm 0.09 in2.3 mm
06:30 AM 60.8°F16.0°C 55.9°F13.3°C 84% 3.5 mph SW5.6 kmh SW 8.3 mph13.4 kmh 28.95 in980.4 mb 0.00 in0.0 mm 0.00 in0.0 mm 0.09 in2.3 mm
06:40 AM 60.8°F16.0°C 55.9°F13.3°C 84% 5.5 mph S8.9 kmh S 10.7 mph17.2 kmh 28.95 in980.4 mb 0.00 in0.0 mm 0.00 in0.0 mm 0.09 in2.3 mm
06:50 AM 60.6°F15.9°C 55.4°F13.0°C 83% 5.1 mph SSW8.2 kmh SSW 8.3 mph13.4 kmh 28.95 in980.4 mb 0.00 in0.0 mm 0.00 in0.0 mm 0.09 in2.3 mm
07:00 AM 60.6°F15.9°C 55.1°F12.8°C 82% 5.3 mph SW8.5 kmh SW 9.2 mph14.8 kmh 28.97 in981.0 mb 0.00 in0.0 mm 0.00 in0.0 mm 0.09 in2.3 mm
07:10 AM 60.3°F15.7°C 54.4°F12.4°C 81% 5.1 mph NNW8.2 kmh NNW 6.9 mph11.1 kmh 28.97 in981.0 mb 0.00 in0.0 mm 0.00 in0.0 mm 0.09 in2.3 mm
07:20 AM 59.9°F15.5°C 53.7°F12.1°C 80% 6.1 mph NW9.8 kmh NW 9.8 mph15.8 kmh 28.97 in981.0 mb 0.00 in0.0 mm 0.00 in0.0 mm 0.09 in2.3 mm
07:30 AM 59.4°F15.2°C 53.5°F11.9°C 81% 5.4 mph WNW8.7 kmh WNW 7.6 mph12.2 kmh 28.98 in981.4 mb 0.00 in0.0 mm 0.00 in0.0 mm 0.09 in2.3 mm
07:40 AM 59.4°F15.2°C 53.5°F11.9°C 81% 4.3 mph WSW6.9 kmh WSW 8.3 mph13.4 kmh 28.98 in981.4 mb 0.00 in0.0 mm 0.00 in0.0 mm 0.09 in2.3 mm
07:50 AM 60.6°F15.9°C 54.8°F12.7°C 81% 3.7 mph S6.0 kmh S 6.0 mph9.7 kmh 28.98 in981.4 mb 0.00 in0.0 mm 0.00 in0.0 mm 0.09 in2.3 mm
08:00 AM 62.1°F16.7°C 55.8°F13.2°C 80% 3.4 mph SW5.5 kmh SW 6.0 mph9.7 kmh 28.98 in981.4 mb 0.00 in0.0 mm 0.00 in0.0 mm 0.09 in2.3 mm
08:10 AM 62.4°F16.9°C 55.1°F12.8°C 77% 3.8 mph SW6.1 kmh SW 6.0 mph9.7 kmh 28.97 in981.0 mb 0.00 in0.0 mm 0.00 in0.0 mm 0.09 in2.3 mm
08:20 AM 62.2°F16.8°C 55.0°F12.8°C 77% 4.3 mph SW6.9 kmh SW 6.0 mph9.7 kmh 28.98 in981.4 mb 0.00 in0.0 mm 0.00 in0.0 mm 0.09 in2.3 mm
08:30 AM 62.8°F17.1°C 55.1°F12.8°C 76% 5.0 mph WSW8.0 kmh WSW 6.9 mph11.1 kmh 28.98 in981.4 mb 0.00 in0.0 mm 0.00 in0.0 mm 0.09 in2.3 mm
08:40 AM 62.6°F17.0°C 54.2°F12.3°C 74% 5.6 mph SSW9.0 kmh SSW 11.4 mph18.3 kmh 28.98 in981.4 mb 0.00 in0.0 mm 0.00 in0.0 mm 0.09 in2.3 mm
08:50 AM 63.1°F17.3°C 54.7°F12.6°C 74% 7.5 mph SW12.1 kmh SW 13.0 mph20.9 kmh 28.99 in981.7 mb 0.00 in0.0 mm 0.00 in0.0 mm 0.09 in2.3 mm
09:00 AM 62.8°F17.1°C 54.0°F12.2°C 73% 7.6 mph SW12.2 kmh SW 9.2 mph14.8 kmh 29.00 in982.1 mb 0.00 in0.0 mm 0.00 in0.0 mm 0.09 in2.3 mm
09:10 AM 62.6°F17.0°C 54.2°F12.3°C 74% 6.0 mph SW9.7 kmh SW 9.2 mph14.8 kmh 28.99 in981.7 mb 0.00 in0.0 mm 0.00 in0.0 mm 0.09 in2.3 mm
09:20 AM 62.2°F16.8°C 53.9°F12.2°C 74% 6.2 mph WSW10.0 kmh WSW 9.2 mph14.8 kmh 29.00 in982.1 mb 0.00 in0.0 mm 0.00 in0.0 mm 0.09 in2.3 mm
09:30 AM 62.4°F16.9°C 54.8°F12.7°C 76% 6.9 mph SSW11.1 kmh SSW 10.7 mph17.2 kmh 29.00 in982.1 mb 0.00 in0.0 mm 0.00 in0.0 mm 0.09 in2.3 mm
09:40 AM 63.7°F17.6°C 54.1°F12.3°C 71% 6.9 mph S11.1 kmh S 9.2 mph14.8 kmh 29.00 in982.1 mb 0.00 in0.0 mm 0.00 in0.0 mm 0.09 in2.3 mm
09:50 AM 62.8°F17.1°C 53.6°F12.0°C 72% 7.2 mph SW11.6 kmh SW 11.4 mph18.3 kmh 29.00 in982.1 mb 0.00 in0.0 mm 0.00 in0.0 mm 0.09 in2.3 mm
10:00 AM 63.1°F17.3°C 54.4°F12.4°C 73% 6.1 mph WSW9.8 kmh WSW 9.8 mph15.8 kmh 29.00 in982.1 mb 0.00 in0.0 mm 0.00 in0.0 mm 0.09 in2.3 mm
10:10 AM 64.2°F17.9°C 54.6°F12.6°C 71% 5.2 mph SSW8.4 kmh SSW 9.2 mph14.8 kmh 29.00 in982.1 mb 0.00 in0.0 mm 0.00 in0.0 mm 0.09 in2.3 mm
10:20 AM 63.7°F17.6°C 53.3°F11.8°C 69% 8.6 mph SW13.8 kmh SW 11.4 mph18.3 kmh 29.00 in982.1 mb 0.00 in0.0 mm 0.00 in0.0 mm 0.09 in2.3 mm
10:30 AM 64.6°F18.1°C 53.8°F12.1°C 68% 7.6 mph SW12.2 kmh SW 10.7 mph17.2 kmh 29.00 in982.1 mb 0.00 in0.0 mm 0.00 in0.0 mm 0.09 in2.3 mm
10:40 AM 65.7°F18.7°C 53.6°F12.0°C 65% 7.7 mph SE12.4 kmh SE 12.1 mph19.5 kmh 29.00 in982.1 mb 0.00 in0.0 mm 0.00 in0.0 mm 0.09 in2.3 mm
10:50 AM 66.6°F19.2°C 54.0°F12.2°C 64% 8.1 mph SW13.0 kmh SW 11.4 mph18.3 kmh 29.00 in982.1 mb 0.00 in0.0 mm 0.00 in0.0 mm 0.09 in2.3 mm
11:00 AM 66.2°F19.0°C 53.3°F11.8°C 63% 7.3 mph WSW11.7 kmh WSW 9.8 mph15.8 kmh 29.00 in982.1 mb 0.00 in0.0 mm 0.00 in0.0 mm 0.09 in2.3 mm
11:10 AM 65.8°F18.8°C 53.3°F11.8°C 64% 7.6 mph SW12.2 kmh SW 9.8 mph15.8 kmh 29.00 in982.1 mb 0.00 in0.0 mm 0.00 in0.0 mm 0.09 in2.3 mm
11:20 AM 66.2°F19.0°C 53.3°F11.8°C 63% 8.4 mph SSW13.5 kmh SSW 11.4 mph18.3 kmh 29.00 in982.1 mb 0.00 in0.0 mm 0.00 in0.0 mm 0.09 in2.3 mm
11:30 AM 66.2°F19.0°C 53.3°F11.8°C 63% 6.7 mph SSW10.8 kmh SSW 9.8 mph15.8 kmh 29.01 in982.4 mb 0.00 in0.0 mm 0.00 in0.0 mm 0.09 in2.3 mm
11:40 AM 65.8°F18.8°C 52.9°F11.6°C 63% 9.0 mph W14.5 kmh W 11.4 mph18.3 kmh 29.00 in982.1 mb 0.00 in0.0 mm 0.00 in0.0 mm 0.09 in2.3 mm
11:50 AM 65.3°F18.5°C 52.4°F11.3°C 63% 8.8 mph S14.2 kmh S 15.2 mph24.5 kmh 29.01 in982.4 mb 0.00 in0.0 mm 0.00 in0.0 mm 0.09 in2.3 mm
12:00 PM 64.9°F18.3°C 52.5°F11.4°C 64% 6.9 mph S11.1 kmh S 10.7 mph17.2 kmh 29.02 in982.7 mb 0.00 in0.0 mm 0.00 in0.0 mm 0.09 in2.3 mm
12:10 PM 64.4°F18.0°C 52.0°F11.1°C 64% 6.7 mph SW10.8 kmh SW 9.2 mph14.8 kmh 29.01 in982.4 mb 0.00 in0.0 mm 0.00 in0.0 mm 0.09 in2.3 mm
12:20 PM 65.8°F18.8°C 52.5°F11.4°C 62% 7.9 mph SW12.7 kmh SW 10.7 mph17.2 kmh 29.00 in982.1 mb 0.00 in0.0 mm 0.00 in0.0 mm 0.09 in2.3 mm
12:30 PM 67.3°F19.6°C 52.9°F11.6°C 60% 6.5 mph SW10.5 kmh SW 9.8 mph15.8 kmh 29.01 in982.4 mb 0.00 in0.0 mm 0.00 in0.0 mm 0.09 in2.3 mm
12:40 PM 67.6°F19.8°C 53.3°F11.8°C 60% 6.7 mph SSW10.8 kmh SSW 9.8 mph15.8 kmh 29.01 in982.4 mb 0.00 in0.0 mm 0.00 in0.0 mm 0.09 in2.3 mm
12:50 PM 67.1°F19.5°C 52.3°F11.3°C 59% 6.0 mph WSW9.7 kmh WSW 8.3 mph13.4 kmh 29.00 in982.1 mb 0.00 in0.0 mm 0.00 in0.0 mm 0.09 in2.3 mm
01:00 PM 66.0°F18.9°C 53.1°F11.7°C 63% 6.7 mph S10.8 kmh S 9.8 mph15.8 kmh 29.01 in982.4 mb 0.00 in0.0 mm 0.00 in0.0 mm 0.09 in2.3 mm
01:10 PM 66.2°F19.0°C 52.4°F11.3°C 61% 7.5 mph SW12.1 kmh SW 12.1 mph19.5 kmh 29.01 in982.4 mb 0.00 in0.0 mm 0.00 in0.0 mm 0.09 in2.3 mm
01:20 PM 66.4°F19.1°C 52.5°F11.4°C 61% 6.9 mph SW11.1 kmh SW 9.2 mph14.8 kmh 29.01 in982.4 mb 0.00 in0.0 mm 0.00 in0.0 mm 0.09 in2.3 mm
01:30 PM 65.5°F18.6°C 51.7°F10.9°C 61% 5.1 mph SW8.2 kmh SW 6.9 mph11.1 kmh 29.02 in982.7 mb 0.00 in0.0 mm 0.00 in0.0 mm 0.09 in2.3 mm
01:40 PM 65.5°F18.6°C 52.1°F11.2°C 62% 5.7 mph SW9.2 kmh SW 9.2 mph14.8 kmh 29.01 in982.4 mb 0.00 in0.0 mm 0.00 in0.0 mm 0.09 in2.3 mm
01:50 PM 64.8°F18.2°C 51.5°F10.8°C 62% 5.2 mph SW8.4 kmh SW 6.9 mph11.1 kmh 29.01 in982.4 mb 0.00 in0.0 mm 0.00 in0.0 mm 0.09 in2.3 mm
02:00 PM 63.9°F17.7°C 52.7°F11.5°C 67% 5.1 mph SW8.2 kmh SW 11.4 mph18.3 kmh 29.02 in982.7 mb 0.00 in0.0 mm 0.00 in0.0 mm 0.09 in2.3 mm
02:10 PM 64.2°F17.9°C 53.5°F11.9°C 68% 5.4 mph WSW8.7 kmh WSW 6.9 mph11.1 kmh 29.01 in982.4 mb 0.00 in0.0 mm 0.00 in0.0 mm 0.09 in2.3 mm
02:20 PM 64.6°F18.1°C 53.4°F11.9°C 67% 3.3 mph W5.3 kmh W 4.5 mph7.2 kmh 29.02 in982.7 mb 0.00 in0.0 mm 0.00 in0.0 mm 0.09 in2.3 mm
02:30 PM 63.7°F17.6°C 54.1°F12.3°C 71% 6.5 mph WSW10.5 kmh WSW 9.8 mph15.8 kmh 29.01 in982.4 mb 0.00 in0.0 mm 0.00 in0.0 mm 0.09 in2.3 mm
02:40 PM 63.0°F17.2°C 55.3°F12.9°C 76% 8.3 mph SSW13.4 kmh SSW 16.8 mph27.0 kmh 29.01 in982.4 mb 0.00 in0.0 mm 0.00 in0.0 mm 0.09 in2.3 mm
02:50 PM 62.6°F17.0°C 56.0°F13.3°C 79% 6.5 mph SSW10.5 kmh SSW 9.8 mph15.8 kmh 29.01 in982.4 mb 0.00 in0.0 mm 0.00 in0.0 mm 0.09 in2.3 mm
03:00 PM 62.8°F17.1°C 55.5°F13.1°C 77% 5.8 mph SSW9.3 kmh SSW 9.2 mph14.8 kmh 29.01 in982.4 mb 0.00 in0.0 mm 0.00 in0.0 mm 0.09 in2.3 mm
03:10 PM 63.0°F17.2°C 54.9°F12.7°C 75% 5.4 mph SW8.7 kmh SW 8.3 mph13.4 kmh 29.00 in982.1 mb 0.00 in0.0 mm 0.00 in0.0 mm 0.09 in2.3 mm
03:20 PM 62.1°F16.7°C 53.7°F12.1°C 74% 6.5 mph SSW10.5 kmh SSW 15.9 mph25.6 kmh 29.01 in982.4 mb 0.00 in0.0 mm 0.00 in0.0 mm 0.09 in2.3 mm
03:30 PM 61.0°F16.1°C 53.0°F11.7°C 75% 7.4 mph SW11.9 kmh SW 9.8 mph15.8 kmh 29.02 in982.7 mb 0.00 in0.0 mm 0.00 in0.0 mm 0.09 in2.3 mm
03:40 PM 59.5°F15.3°C 51.6°F10.9°C 75% 7.5 mph SSW12.1 kmh SSW 12.1 mph19.5 kmh 29.03 in983.1 mb 0.00 in0.0 mm 0.00 in0.0 mm 0.09 in2.3 mm
03:50 PM 60.3°F15.7°C 52.0°F11.1°C 74% 4.7 mph S7.6 kmh S 7.6 mph12.2 kmh 29.01 in982.4 mb 0.00 in0.0 mm 0.00 in0.0 mm 0.09 in2.3 mm
04:00 PM 60.8°F16.0°C 51.7°F10.9°C 72% 7.2 mph SW11.6 kmh SW 10.7 mph17.2 kmh 29.02 in982.7 mb 0.00 in0.0 mm 0.00 in0.0 mm 0.09 in2.3 mm
04:10 PM 60.1°F15.6°C 51.4°F10.8°C 73% 5.4 mph SSW8.7 kmh SSW 8.3 mph13.4 kmh 29.02 in982.7 mb 0.00 in0.0 mm 0.00 in0.0 mm 0.09 in2.3 mm
04:20 PM 60.3°F15.7°C 51.2°F10.7°C 72% 7.8 mph SSW12.6 kmh SSW 12.1 mph19.5 kmh 29.02 in982.7 mb 0.00 in0.0 mm 0.00 in0.0 mm 0.09 in2.3 mm
04:30 PM 60.1°F15.6°C 51.8°F11.0°C 74% 6.1 mph SSW9.8 kmh SSW 9.2 mph14.8 kmh 29.02 in982.7 mb 0.00 in0.0 mm 0.00 in0.0 mm 0.09 in2.3 mm
04:40 PM 60.1°F15.6°C 52.1°F11.2°C 75% 6.7 mph SSW10.8 kmh SSW 10.7 mph17.2 kmh 29.02 in982.7 mb 0.00 in0.0 mm 0.00 in0.0 mm 0.09 in2.3 mm
04:50 PM 59.5°F15.3°C 52.7°F11.5°C 78% 6.3 mph SW10.1 kmh SW 13.0 mph20.9 kmh 29.02 in982.7 mb 0.00 in0.0 mm 0.00 in0.0 mm 0.09 in2.3 mm
05:00 PM 61.0°F16.1°C 53.4°F11.9°C 76% 6.0 mph WSW9.7 kmh WSW 9.8 mph15.8 kmh 29.02 in982.7 mb 0.00 in0.0 mm 0.00 in0.0 mm 0.09 in2.3 mm
05:10 PM 60.4°F15.8°C 51.8°F11.0°C 73% 6.3 mph SW10.1 kmh SW 9.2 mph14.8 kmh 29.02 in982.7 mb 0.00 in0.0 mm 0.00 in0.0 mm 0.09 in2.3 mm
05:20 PM 59.4°F15.2°C 51.8°F11.0°C 76% 6.1 mph SW9.8 kmh SW 9.2 mph14.8 kmh 29.01 in982.4 mb 0.00 in0.0 mm 0.00 in0.0 mm 0.09 in2.3 mm
05:30 PM 58.8°F14.9°C 52.3°F11.3°C 79% 5.8 mph S9.3 kmh S 11.4 mph18.3 kmh 29.02 in982.7 mb 0.00 in0.0 mm 0.00 in0.0 mm 0.09 in2.3 mm
05:40 PM 58.6°F14.8°C 52.5°F11.4°C 80% 5.1 mph SSW8.2 kmh SSW 6.9 mph11.1 kmh 29.03 in983.1 mb 0.00 in0.0 mm 0.00 in0.0 mm 0.09 in2.3 mm
05:50 PM 58.1°F14.5°C 52.6°F11.4°C 82% 5.5 mph S8.9 kmh S 9.2 mph14.8 kmh 29.04 in983.4 mb 0.00 in0.0 mm 0.00 in0.0 mm 0.09 in2.3 mm
06:00 PM 57.6°F14.2°C 52.8°F11.6°C 84% 4.6 mph S7.4 kmh S 8.3 mph13.4 kmh 29.03 in983.1 mb 0.00 in0.0 mm 0.00 in0.0 mm 0.09 in2.3 mm
06:10 PM 57.2°F14.0°C 52.7°F11.5°C 85% 5.1 mph SSW8.2 kmh SSW 9.8 mph15.8 kmh 29.03 in983.1 mb 0.00 in0.0 mm 0.00 in0.0 mm 0.09 in2.3 mm
06:20 PM 57.2°F14.0°C 52.7°F11.5°C 85% 5.0 mph S8.0 kmh S 7.6 mph12.2 kmh 29.02 in982.7 mb 0.00 in0.0 mm 0.00 in0.0 mm 0.09 in2.3 mm
06:30 PM 57.2°F14.0°C 52.4°F11.3°C 84% 5.9 mph SSW9.5 kmh SSW 8.3 mph13.4 kmh 29.03 in983.1 mb 0.00 in0.0 mm 0.00 in0.0 mm 0.09 in2.3 mm
06:40 PM 57.0°F13.9°C 52.2°F11.2°C 84% 5.8 mph SW9.3 kmh SW 9.8 mph15.8 kmh 29.03 in983.1 mb 0.00 in0.0 mm 0.00 in0.0 mm 0.09 in2.3 mm
06:50 PM 56.8°F13.8°C 52.1°F11.2°C 84% 4.4 mph SW7.1 kmh SW 5.4 mph8.7 kmh 29.03 in983.1 mb 0.00 in0.0 mm 0.00 in0.0 mm 0.09 in2.3 mm
07:00 PM 56.7°F13.7°C 52.2°F11.2°C 85% 4.6 mph S7.4 kmh S 8.3 mph13.4 kmh 29.03 in983.1 mb 0.00 in0.0 mm 0.00 in0.0 mm 0.09 in2.3 mm
07:10 PM 56.7°F13.7°C 52.2°F11.2°C 85% 4.6 mph SW7.4 kmh SW 6.9 mph11.1 kmh 29.04 in983.4 mb 0.00 in0.0 mm 0.00 in0.0 mm 0.09 in2.3 mm
07:20 PM 57.0°F13.9°C 52.2°F11.2°C 84% 5.6 mph SSW9.0 kmh SSW 7.6 mph12.2 kmh 29.04 in983.4 mb 0.00 in0.0 mm 0.00 in0.0 mm 0.09 in2.3 mm
07:30 PM 57.0°F13.9°C 51.9°F11.1°C 83% 4.6 mph S7.4 kmh S 9.2 mph14.8 kmh 29.04 in983.4 mb 0.00 in0.0 mm 0.00 in0.0 mm 0.09 in2.3 mm
07:40 PM 57.0°F13.9°C 51.9°F11.1°C 83% 3.8 mph SSW6.1 kmh SSW 6.9 mph11.1 kmh 29.04 in983.4 mb 0.00 in0.0 mm 0.00 in0.0 mm 0.09 in2.3 mm
07:50 PM 56.8°F13.8°C 52.1°F11.2°C 84% 5.2 mph SW8.4 kmh SW 6.9 mph11.1 kmh 29.04 in983.4 mb 0.00 in0.0 mm 0.00 in0.0 mm 0.09 in2.3 mm
08:00 PM 57.2°F14.0°C 52.4°F11.3°C 84% 6.8 mph SW10.9 kmh SW 9.2 mph14.8 kmh 29.04 in983.4 mb 0.00 in0.0 mm 0.00 in0.0 mm 0.09 in2.3 mm
08:10 PM 57.4°F14.1°C 52.6°F11.4°C 84% 5.9 mph SW9.5 kmh SW 8.3 mph13.4 kmh 29.04 in983.4 mb 0.00 in0.0 mm 0.00 in0.0 mm 0.09 in2.3 mm
08:20 PM 57.6°F14.2°C 52.4°F11.3°C 83% 7.6 mph WSW12.2 kmh WSW 10.7 mph17.2 kmh 29.04 in983.4 mb 0.00 in0.0 mm 0.00 in0.0 mm 0.09 in2.3 mm
08:30 PM 57.6°F14.2°C 52.1°F11.2°C 82% 5.4 mph SSW8.7 kmh SSW 8.3 mph13.4 kmh 29.04 in983.4 mb 0.00 in0.0 mm 0.00 in0.0 mm 0.09 in2.3 mm
08:40 PM 57.6°F14.2°C 52.1°F11.2°C 82% 6.8 mph SW10.9 kmh SW 9.2 mph14.8 kmh 29.05 in983.7 mb 0.00 in0.0 mm 0.00 in0.0 mm 0.09 in2.3 mm
08:50 PM 57.6°F14.2°C 51.8°F11.0°C 81% 6.8 mph S10.9 kmh S 12.1 mph19.5 kmh 29.05 in983.7 mb 0.00 in0.0 mm 0.00 in0.0 mm 0.09 in2.3 mm
09:00 PM 57.6°F14.2°C 51.8°F11.0°C 81% 7.9 mph WSW12.7 kmh WSW 14.5 mph23.3 kmh 29.05 in983.7 mb 0.00 in0.0 mm 0.00 in0.0 mm 0.09 in2.3 mm
09:10 PM 57.6°F14.2°C 51.4°F10.8°C 80% 5.8 mph E9.3 kmh E 8.3 mph13.4 kmh 29.05 in983.7 mb 0.00 in0.0 mm 0.00 in0.0 mm 0.09 in2.3 mm
09:20 PM 57.6°F14.2°C 51.4°F10.8°C 80% 6.1 mph SW9.8 kmh SW 8.3 mph13.4 kmh 29.05 in983.7 mb 0.00 in0.0 mm 0.00 in0.0 mm 0.09 in2.3 mm
09:30 PM 57.4°F14.1°C 51.3°F10.7°C 80% 5.4 mph SSW8.7 kmh SSW 13.0 mph20.9 kmh 29.05 in983.7 mb 0.00 in0.0 mm 0.00 in0.0 mm 0.09 in2.3 mm
09:40 PM 57.4°F14.1°C 51.6°F10.9°C 81% 5.9 mph SSW9.5 kmh SSW 9.2 mph14.8 kmh 29.05 in983.7 mb 0.00 in0.0 mm 0.00 in0.0 mm 0.09 in2.3 mm
09:50 PM 57.4°F14.1°C 51.6°F10.9°C 81% 4.8 mph SW7.7 kmh SW 8.3 mph13.4 kmh 29.04 in983.4 mb 0.00 in0.0 mm 0.00 in0.0 mm 0.09 in2.3 mm
10:00 PM 57.4°F14.1°C 51.6°F10.9°C 81% 5.5 mph S8.9 kmh S 8.3 mph13.4 kmh 29.04 in983.4 mb 0.00 in0.0 mm 0.00 in0.0 mm 0.09 in2.3 mm
10:10 PM 57.2°F14.0°C 51.8°F11.0°C 82% 5.2 mph SSE8.4 kmh SSE 8.3 mph13.4 kmh 29.05 in983.7 mb 0.00 in0.0 mm 0.00 in0.0 mm 0.09 in2.3 mm
10:20 PM 57.2°F14.0°C 51.8°F11.0°C 82% 5.4 mph SSW8.7 kmh SSW 9.2 mph14.8 kmh 29.04 in983.4 mb 0.00 in0.0 mm 0.00 in0.0 mm 0.09 in2.3 mm
10:30 PM 57.4°F14.1°C 51.6°F10.9°C 81% 5.5 mph SW8.9 kmh SW 9.2 mph14.8 kmh 29.05 in983.7 mb 0.00 in0.0 mm 0.00 in0.0 mm 0.09 in2.3 mm
10:40 PM 57.4°F14.1°C 51.3°F10.7°C 80% 6.6 mph SW10.6 kmh SW 9.2 mph14.8 kmh 29.05 in983.7 mb 0.00 in0.0 mm 0.00 in0.0 mm 0.09 in2.3 mm
10:50 PM 57.2°F14.0°C 51.4°F10.8°C 81% 6.0 mph SSW9.7 kmh SSW 9.2 mph14.8 kmh 29.05 in983.7 mb 0.00 in0.0 mm 0.00 in0.0 mm 0.09 in2.3 mm
11:00 PM 57.2°F14.0°C 51.1°F10.6°C 80% 5.8 mph S9.3 kmh S 9.8 mph15.8 kmh 29.05 in983.7 mb 0.00 in0.0 mm 0.00 in0.0 mm 0.09 in2.3 mm
11:10 PM 57.2°F14.0°C 51.4°F10.8°C 81% 5.7 mph S9.2 kmh S 9.8 mph15.8 kmh 29.05 in983.7 mb 0.00 in0.0 mm 0.00 in0.0 mm 0.09 in2.3 mm
11:20 PM 57.0°F13.9°C 51.3°F10.7°C 81% 5.9 mph SW9.5 kmh SW 9.2 mph14.8 kmh 29.05 in983.7 mb 0.00 in0.0 mm 0.00 in0.0 mm 0.09 in2.3 mm
11:30 PM 56.8°F13.8°C 51.1°F10.6°C 81% 5.5 mph S8.9 kmh S 12.1 mph19.5 kmh 29.05 in983.7 mb 0.00 in0.0 mm 0.00 in0.0 mm 0.09 in2.3 mm
11:40 PM 56.8°F13.8°C 51.1°F10.6°C 81% 5.9 mph S9.5 kmh S 12.1 mph19.5 kmh 29.05 in983.7 mb 0.00 in0.0 mm 0.00 in0.0 mm 0.09 in2.3 mm
11:50 PM 56.7°F13.7°C 50.9°F10.5°C 81% 6.6 mph SW10.6 kmh SW 8.3 mph13.4 kmh 29.04 in983.4 mb 0.00 in0.0 mm 0.00 in0.0 mm 0.09 in2.3 mm